| Place | Name | Time | Raw score | Score |
|---|---|---|---|---|
| 1 | -DarkLlama- | 37.42 | 1,000 | 319 |
| 2 | Maxter Max | 37.72 | 900 | 287 |
| 3 | Freud | 39.77 | 859 | 274 |
| 4 | Brionac | 48.10 | 827 | 264 |
| 5 | Gyodesis | 48.17 | 800 | 255 |
| 6 | IllKIllU | 49.11 | 777 | 248 |
| 7 | XiQu3sT | 51.10 | 756 | 241 |
| 8 | jason | 52.67 | 736 | 235 |
| 9 | Californ1a | 52.98 | 718 | 229 |
| 10 | Bridge | 54.74 | 700 | 223 |
| 11 | Zany | 55.90 | 684 | 218 |
| 12 | slug ʕ●.●ʔ | 56.15 | 669 | 213 |
| 13 | [deleted] | 58.40 | 654 | 208 |
| 14 | TP-N.co PC-118 B-10001110101 | 1:00.09 | 640 | 204 |
| 15 | Sidewinder Fang | 1:00.47 | 626 | 200 |
| 16 | Iris | 1:00.57 | 613 | 195 |
| 17 | ReallyDumbFox | 1:00.76 | 600 | 191 |
| 18 | The Blue Fox | 1:01.52 | 588 | 187 |
| 19 | Dreigo | 1:03.39 | 576 | 184 |
| 20 | Benji | 1:07.55 | 565 | 180 |
| 21 | But we're both girls! | 1:08.30 | 553 | 176 |
| 22 | pigpenguin | 1:10.86 | 542 | 173 |
| 23 | Kinix | 1:12.14 | 531 | 169 |
| 24 | Kenaz | 1:19.22 | 521 | 166 |
| 25 | [deleted] | 1:22.57 | 511 | 163 |
| 26 | Razgriez | 1:26.88 | 500 | 159 |
| 27 | OMANEYE | 1:27.67 | 491 | 157 |
| 28 | Simon Evo | 1:30.17 | 481 | 153 |
| 29 | Neoblastz | 1:33.28 | 471 | 150 |
| 30 | Jay2a | 1:58.60 | 462 | 147 |
| 31 | RaiderZulu | 2:23.47 | 453 | 144 |
| 32 | Homulilly (Witch) | 2:40.89 | 444 | 142 |
| 33 | Tribow | 2:52.52 | 435 | 139 |
| 34 | Predatory_Balloon | 2:58.57 | 426 | 136 |
| 35 | SirLiveAlot | 2:58.58 | 417 | 133 |
| 36 | TheMelonGod | 3:02.07 | 409 | 130 |
| 37 | Overlord | 3:02.52 | 400 | 128 |
| 38 | TheEvilMidnightBomber | 3:02.67 | 392 | 125 |
| 39 | Kaliphear | 3:02.95 | 384 | 122 |
| 40 | Xeno146 | 3:03.14 | 376 | 120 |
| 41 | Sev | 3:03.17 | 368 | 117 |
| 42 | Toastmaster | 3:03.33 | 360 | 115 |
| 42 | Latapi | 3:03.33 | 360 | 115 |
| 44 | VectorBot | 3:03.82 | 345 | 110 |
| 45 | O' The Iron E | 3:04.03 | 337 | 107 |
| 46 | Fancy | 3:04.12 | 330 | 105 |
| 47 | Stracker | 3:04.20 | 322 | 103 |
| 48 | iHaveAwfulIdeas | 3:04.38 | 315 | 100 |
| 49 | m00ch | 3:04.58 | 308 | 98 |
| 50 | Crimson Blood | 3:04.68 | 300 | 96 |
| 51 | rbrules | 3:04.93 | 293 | 93 |
| 52 | Orion | 3:05.48 | 286 | 91 |
| 53 | The Unusual Suspect | 3:05.49 | 279 | 89 |
| 54 | MileHighGuy | 3:05.51 | 272 | 87 |
| 55 | Blanked | 3:05.53 | 266 | 85 |
| 56 | itsukarine | 3:05.60 | 259 | 83 |
| 57 | Azure Zakura | 3:05.79 | 252 | 80 |
| 58 | Epsilon_Knight | 3:05.91 | 246 | 78 |
| 59 | Sayukki | 3:06.05 | 239 | 76 |
| 60 | Nero | 3:06.07 | 232 | 74 |
| 61 | Tim From HR | 3:06.14 | 226 | 72 |
| 62 | kriz_chan | 3:06.28 | 219 | 70 |
| 63 | Chase | 3:06.30 | 213 | 68 |
| 64 | Curious Fish | 3:06.41 | 207 | 66 |
| 65 | NyaNekoEngine | 3:06.42 | 200 | 64 |
| 66 | Tuli | 3:06.48 | 194 | 62 |
| 67 | Buck | 3:06.58 | 188 | 60 |
| 67 | Sagara | 3:06.58 | 188 | 60 |
| 69 | Taro | 3:06.65 | 176 | 56 |
| 70 | Pompous Whale | 3:06.70 | 170 | 54 |
| 71 | JacquetheRipper | 3:06.82 | 164 | 52 |
| 72 | Ferreus | 3:06.86 | 158 | 50 |
| 73 | worker bee mentality | 3:07.07 | 152 | 48 |
| 74 | Void Concept | 3:07.10 | 146 | 47 |
| 75 | Treme | 3:07.12 | 140 | 45 |
| 76 | Weird Pumpkin | 3:07.97 | 134 | 43 |
| 77 | dumkaf | 3:07.99 | 129 | 41 |
| 77 | FlamingFlamingo | 3:07.99 | 129 | 41 |
| 79 | Rombommind | 3:08.41 | 117 | 37 |
| 80 | cptnbean | 3:08.48 | 112 | 36 |
| 81 | LissomChunk | 3:08.75 | 106 | 34 |
| 82 | Felix | 3:08.78 | 100 | 32 |
| 83 | Dragnar The Meme God | 3:08.82 | 95 | 30 |
| 84 | Tem | 3:08.93 | 89 | 28 |
| 85 | Super_Shadow57 | 3:09.06 | 84 | 27 |
| 86 | PolychromeVirus | 3:09.39 | 79 | 25 |
| 87 | aoe_emp | 3:09.71 | 73 | 23 |
| 88 | LobaDK | 3:09.82 | 68 | 22 |
| 89 | YoloMoth | 3:09.87 | 62 | 20 |
| 89 | Disatroja | 3:09.87 | 62 | 20 |
| 91 | PinesOfChaos | 3:10.03 | 52 | 17 |
| 92 | codename_rb | 3:10.13 | 47 | 15 |
| 93 | s00 | 3:10.21 | 41 | 13 |
| 94 | Lliane | 3:10.26 | 36 | 11 |
| 95 | Naikel [FR] | 3:10.35 | 31 | 10 |
| 96 | Dorphan | 3:10.58 | 26 | 8 |
| 97 | Vyneci | 3:10.66 | 21 | 7 |
| 98 | FifteenBread | 3:11.36 | 16 | 5 |
| 99 | lEm=uS | 3:11.67 | 11 | 4 |
| 100 | Waonder | 3:11.71 | 6 | 2 |
| 101 | Cathy | 3:11.77 | 0 | 0 |
| 102 | sendthefish | 3:11.87 | 0 | 0 |
| 103 | synco | 3:12.03 | 0 | 0 |
| 104 | Numerousluke | 3:12.06 | 0 | 0 |
| 105 | Blexyde | 3:12.26 | 0 | 0 |
| 106 | Agent Tangerine | 3:12.33 | 0 | 0 |
| 106 | Greenfire DX | 3:12.33 | 0 | 0 |
| 108 | ErzoopaRTR | 3:12.38 | 0 | 0 |
| 109 | fischpferd | 3:12.99 | 0 | 0 |
| 110 | warmainiac | 3:13.01 | 0 | 0 |
| 111 | i0nTempest | 3:13.34 | 0 | 0 |
| 112 | ElHombre86 | 3:13.41 | 0 | 0 |
| 113 | delfiler | 3:13.61 | 0 | 0 |
| 113 | Meda | 3:13.61 | 0 | 0 |
| 115 | Fumeijoe | 3:13.79 | 0 | 0 |
| 116 | Lysander | 3:14.57 | 0 | 0 |
| 117 | FyreWall | 3:15.42 | 0 | 0 |
| 118 | C4tch | 3:15.83 | 0 | 0 |
| 119 | CuddleStrike | 3:16.53 | 0 | 0 |
| 120 | Noah | 3:16.56 | 0 | 0 |
| 121 | Byaku198 | 3:16.63 | 0 | 0 |
| 122 | throbbing_fish | 3:17.04 | 0 | 0 |
| 123 | Samn | 3:17.75 | 0 | 0 |
| 124 | snugglebottom | 3:17.79 | 0 | 0 |
| 125 | MyurrDurr | 3:18.21 | 0 | 0 |
| 126 | rezzonating | 3:18.46 | 0 | 0 |
| 127 | NoBody | 3:18.54 | 0 | 0 |
| 128 | Zenixic | 3:18.69 | 0 | 0 |
| 129 | khrisround2 | 3:18.86 | 0 | 0 |
| 130 | TheBoredguyyy | 3:19.37 | 0 | 0 |
| 131 | DROCHEPOLK | 3:19.70 | 0 | 0 |
| 132 | Qioury | 3:19.87 | 0 | 0 |
| 133 | Natr | 3:20.16 | 0 | 0 |
| 134 | le0n | 3:20.18 | 0 | 0 |
| 135 | AVeryTastyCactus | 3:20.37 | 0 | 0 |
| 136 | Crespojazzman | 3:20.48 | 0 | 0 |
| 137 | onyxglow | 3:20.53 | 0 | 0 |
| 138 | TinFoilMkIV | 3:20.59 | 0 | 0 |
| 139 | Saint Pierre | 3:20.80 | 0 | 0 |
| 140 | Helios | 3:20.87 | 0 | 0 |
| 141 | Lud | Forest | 3:21.05 | 0 | 0 |
| 142 | ThinkInvisible | 3:21.44 | 0 | 0 |
| 143 | BigThirsty | 3:21.53 | 0 | 0 |
| 144 | BlacKat | 3:21.88 | 0 | 0 |
| 145 | concil | 3:21.95 | 0 | 0 |
| 146 | samson13 | 3:22.03 | 0 | 0 |
| 147 | spb1234 | 3:22.77 | 0 | 0 |
| 148 | Azem_of_Earth | 3:23.10 | 0 | 0 |
| 149 | Jabubu | 3:23.74 | 0 | 0 |
| 150 | Lambreck | 3:23.85 | 0 | 0 |
| 151 | Bratalix | 3:24.30 | 0 | 0 |
| 152 | MrCrazYFox | 3:24.49 | 0 | 0 |
| 153 | Ahhrealpeople | 3:25.39 | 0 | 0 |
| 154 | Shjohn | 3:25.77 | 0 | 0 |
| 155 | SkellyVamps | 3:25.98 | 0 | 0 |
| 156 | Arn-Mulet | 3:26.33 | 0 | 0 |
| 157 | VanTec | 3:26.50 | 0 | 0 |
| 158 | Boucoque | 3:26.82 | 0 | 0 |
| 159 | Tschokii | 3:26.83 | 0 | 0 |
| 160 | Womble_NI | 3:26.99 | 0 | 0 |
| 161 | Anerix (Paradox) Cormin Quanadol | 3:27.16 | 0 | 0 |
| 162 | Sir Not Nub | 3:27.95 | 0 | 0 |
| 162 | Well Shit | 3:27.95 | 0 | 0 |
| 164 | Lightshift | 3:28.06 | 0 | 0 |
| 165 | Jezo | 3:28.60 | 0 | 0 |
| 166 | SkyCaptain502 | 3:29.25 | 0 | 0 |
| 167 | P0LL0 | 3:29.29 | 0 | 0 |
| 168 | Ashton_bro | 3:29.66 | 0 | 0 |
| 169 | MarsDevastater | 3:30.17 | 0 | 0 |
| 170 | Dimitri | 3:30.92 | 0 | 0 |
| 171 | Uganda Knuckles | 3:31.17 | 0 | 0 |
| 172 | skuzzzy | 3:31.32 | 0 | 0 |
| 173 | zafaka | 3:31.63 | 0 | 0 |
| 174 | キタ一一(゚∀゚)一一!! | 3:32.35 | 0 | 0 |
| 175 | LittleKittyArtemis | 3:32.41 | 0 | 0 |
| 176 | Digbat | 3:33.47 | 0 | 0 |
| 177 | Enzyme Machine | 3:33.53 | 0 | 0 |
| 178 | EnderKill98 | 3:33.68 | 0 | 0 |
| 179 | Scoops | 3:34.76 | 0 | 0 |
| 180 | Blank | 3:35.24 | 0 | 0 |
| 181 | ImmortalSausages | 3:35.53 | 0 | 0 |
| 182 | Indy1984 | 3:36.27 | 0 | 0 |
| 183 | Phaserlight | 3:36.73 | 0 | 0 |
| 184 | Admiral Pond Scum | 3:36.90 | 0 | 0 |
| 185 | Nordman | 3:37.19 | 0 | 0 |
| 185 | Xandrak | 3:37.19 | 0 | 0 |
| 187 | Fénix | 3:37.64 | 0 | 0 |
| 188 | DefenderOfHyrule | 3:37.65 | 0 | 0 |
| 189 | Viridus | 3:37.80 | 0 | 0 |
| 190 | Axerol | 3:37.91 | 0 | 0 |
| 191 | ShadowWolf | 3:38.04 | 0 | 0 |
| 192 | rz zombie | 3:38.42 | 0 | 0 |
| 193 | Queritz | 3:38.64 | 0 | 0 |
| 194 | Apocalyptic Bunny | 3:38.91 | 0 | 0 |
| 195 | Reinforce Virta | 3:39.24 | 0 | 0 |
| 196 | pox | 3:39.70 | 0 | 0 |
| 197 | GOOSE SATAN! | 3:39.88 | 0 | 0 |
| 198 | calne | 3:39.90 | 0 | 0 |
| 199 | PLPlolol | 3:40.53 | 0 | 0 |
| 200 | RedSmegz | 3:41.06 | 0 | 0 |
| 201 | Gnarrang | 3:41.59 | 0 | 0 |
| 202 | Byaku78952 | 3:41.72 | 0 | 0 |
| 203 | JaimmyShine | 3:41.89 | 0 | 0 |
| 204 | Paparazzi | 3:42.23 | 0 | 0 |
| 205 | Squeeeeeeeeps | 3:42.25 | 0 | 0 |
| 206 | Kuma Matata | 3:42.47 | 0 | 0 |
| 207 | BananaHD910 | 3:42.55 | 0 | 0 |
| 208 | 16aroth6 | 3:43.68 | 0 | 0 |
| 209 | Todd Baxter | 3:44.08 | 0 | 0 |
| 210 | S.Kappelmann | 3:44.24 | 0 | 0 |
| 211 | JayBoneJay | 3:44.26 | 0 | 0 |
| 212 | Warriot | 3:44.38 | 0 | 0 |
| 213 | Vendall | 3:45.47 | 0 | 0 |
| 214 | Conrad the Magnificent | 3:45.48 | 0 | 0 |
| 214 | MAT D.R.⎛⎝≥⏝⏝≤⎠⎞ | 3:45.48 | 0 | 0 |
| 216 | BennLivid | 3:45.91 | 0 | 0 |
| 217 | jmdajm7 | 3:47.21 | 0 | 0 |
| 218 | Snowglider | 3:47.64 | 0 | 0 |
| 219 | Paps | 3:48.16 | 0 | 0 |
| 220 | Myogi Night | 3:49.52 | 0 | 0 |
| 221 | sizifov | 3:49.76 | 0 | 0 |
| 222 | Burden, The Red | 3:49.78 | 0 | 0 |
| 223 | Inzarin | 3:50.97 | 0 | 0 |
| 224 | Luminous | 3:51.24 | 0 | 0 |
| 225 | Count Spatula | 3:52.37 | 0 | 0 |
| 226 | A̶͓̓z̷͓̍ũ̴̩r̷͔͐e̴ | 3:52.76 | 0 | 0 |
| 227 | James "Papa Het" Hetfield | 3:53.35 | 0 | 0 |
| 228 | Autism M5 Max | 3:53.83 | 0 | 0 |
| 229 | Starhorder | 3:57.30 | 0 | 0 |
| 230 | Alrunes | 3:57.59 | 0 | 0 |
| 231 | mst#16 | 3:58.56 | 0 | 0 |
| 232 | ThiccBlackDaddy.ttv | 3:59.65 | 0 | 0 |
| 233 | Шоколадка:) | 4:00.77 | 0 | 0 |
| 234 | Coopstar2323 | 4:01.35 | 0 | 0 |
| 235 | Njac | 4:01.51 | 0 | 0 |
| 236 | 문경왕개미 | 4:02.04 | 0 | 0 |
| 237 | Bistdocs | 4:02.59 | 0 | 0 |
| 238 | GetEmOtterHere | 4:02.68 | 0 | 0 |
| 239 | Siyan | 4:03.12 | 0 | 0 |
| 240 | 2026 ford focus | 4:03.57 | 0 | 0 |
| 241 | Tomato Town | 4:03.71 | 0 | 0 |
| 242 | Elpis Lynx | 4:04.13 | 0 | 0 |
| 243 | BrandonK-TN | 4:04.46 | 0 | 0 |
| 244 | GTNeon | 4:05.05 | 0 | 0 |
| 245 | Combustaoki | 4:06.86 | 0 | 0 |
| 246 | Ad921 | 4:08.36 | 0 | 0 |
| 247 | crimes.against.art | 4:08.72 | 0 | 0 |
| 248 | Rorrim Eluc | 4:09.50 | 0 | 0 |
| 249 | Ape Tea | 4:10.54 | 0 | 0 |
| 250 | HJQLF | 4:11.22 | 0 | 0 |
| 251 | Devita | 4:13.91 | 0 | 0 |
| 252 | Dislin | 4:14.15 | 0 | 0 |
| 253 | Danionc | 4:14.85 | 0 | 0 |
| 254 | 3x | 4:16.17 | 0 | 0 |
| 255 | Dgeept | 4:18.14 | 0 | 0 |
| 256 | Swiditch | 4:18.26 | 0 | 0 |
| 257 | woohay | 4:19.42 | 0 | 0 |
| 258 | CodedCrow | 4:19.60 | 0 | 0 |
| 259 | Plushsealy | 4:20.29 | 0 | 0 |
| 260 | B'neppe | 4:21.33 | 0 | 0 |
| 261 | Ostman | 4:21.53 | 0 | 0 |
| 262 | Seere | 4:22.35 | 0 | 0 |
| 263 | SaxyBoi | 4:23.05 | 0 | 0 |
| 264 | Akazs | 4:25.49 | 0 | 0 |
| 265 | Graham Hill | 4:26.14 | 0 | 0 |
| 266 | Esoyoki | 4:27.93 | 0 | 0 |
| 267 | Aerwhisp | 4:28.08 | 0 | 0 |
| 268 | frode | 4:30.33 | 0 | 0 |
| 269 | ketikidistv | 4:31.42 | 0 | 0 |
| 270 | xanthousphoenix | 4:31.93 | 0 | 0 |
| 271 | Skybox | 4:34.60 | 0 | 0 |
| 272 | FrostCorp | 4:34.75 | 0 | 0 |
| 273 | Andy95 | 4:35.96 | 0 | 0 |
| 274 | TheDeco | 4:36.98 | 0 | 0 |
| 275 | fluttershyrulez77 | 4:42.30 | 0 | 0 |
| 276 | Larochelle | 4:43.34 | 0 | 0 |
| 277 | Xelas25 | 4:43.86 | 0 | 0 |
| 278 | Sibsen | 4:59.95 | 0 | 0 |
| 279 | L_0_P_3_Y________ | 4:59.99 | 0 | 0 |
| 280 | Blackie Chan | 5:01.15 | 0 | 0 |
| 281 | Strayman | 5:06.14 | 0 | 0 |
| 282 | BesRezen | 5:11.67 | 0 | 0 |
| 283 | Patches | 5:20.40 | 0 | 0 |
| 284 | Pebble | 5:21.75 | 0 | 0 |
| 285 | Maugan Ra | 5:38.72 | 0 | 0 |
| 286 | Roggee | 5:56.58 | 0 | 0 |
| 287 | BuzzinBeatz™ | 5:57.31 | 0 | 0 |
| 288 | VariousBlazertazer | 6:06.28 | 0 | 0 |
| 289 | Santah_Klaus69 | 6:22.13 | 0 | 0 |
| 290 | Toxicologixal | 14:30.61 | 0 | 0 |
HoldGrip